Rechercher aéroport 
image banner adimage banner ad
image banner ad

DABB - Annaba / Rabah Bitat

Situé à Annaba, Algeria

ICAO - DABB, IATA - AAE

Données fournies par Airmate  

Information générale

Coordonnées: N36°49'20" E7°48'34"
Élévation : 16 feet MSL.
 
Voir autres Aéroports à El Tarf Province

Données opérationnelles

Accessible au public
Heure actuelle UTC:
Heure actuelle locale:
Météo
METAR: DABB 230600Z 25002KT 9999 SCT033 SCT100 20/19 Q1013
TAF: TAF DABB 230500Z 2306/2406 35008KT 9999 FEW023 SCT100 PROB30 TEMPO 2306/2308 2000 BR BKN008 PROB40 TEMPO 2308/2320 FEW023TCU
Voir NOTAMs / SUP AIP / TFR affectant cet aéroport [VIEW]
Fréquences de communication: [VIEW]

Pistes:

Identifiant RWYQFULongueur (ft)Largeur (ft)SurfaceLDA (ft)
0552°7513148
23232°7513148
18186°9843148
369843148

Coordonnées de l'aéroport

Adresse: Annaba Algeria

Vue satellite de DABB